createdAt,value
2023-03-26T00:01:39.326Z,52515.50
2023-03-26T00:04:07.759Z,52107.19
2023-03-26T00:06:39.475Z,51704.91
2023-03-26T00:09:13.226Z,51276.66
2023-03-26T00:11:41.063Z,50790.44
2023-03-26T00:14:13.895Z,50908.47
2023-03-26T00:16:47.665Z,49378.22
2023-03-26T00:19:15.613Z,52259.28
2023-03-26T00:21:42.884Z,50292.28
2023-03-26T00:24:17.382Z,49108.25
2023-03-26T00:26:48.420Z,48996.25
2023-03-26T00:29:15.594Z,49332.22
2023-03-26T00:31:45.999Z,48692.31
2023-03-26T00:34:15.745Z,47972.56
2023-03-26T00:36:43.846Z,48384.41
2023-03-26T00:39:11.121Z,48606.34
2023-03-26T00:41:42.976Z,48682.31
2023-03-26T00:44:11.528Z,48784.28
2023-03-26T00:46:39.137Z,49068.25
2023-03-26T00:49:10.827Z,50154.25
2023-03-26T00:51:39.079Z,50264.28
2023-03-26T00:54:12.631Z,50180.28
2023-03-26T00:56:39.962Z,50690.41
2023-03-26T00:59:09.233Z,50298.28
2023-03-26T01:01:39.840Z,49632.22
2023-03-26T01:04:31.212Z,49066.25
2023-03-26T01:07:02.858Z,50228.28
2023-03-26T01:09:36.934Z,49882.22
2023-03-26T01:12:07.503Z,50244.28
2023-03-26T01:14:35.022Z,50982.50
2023-03-26T01:17:06.037Z,50552.34
2023-03-26T01:19:45.353Z,51256.66
2023-03-26T01:22:19.639Z,51584.81
2023-03-26T01:24:52.949Z,51464.75
2023-03-26T01:27:33.751Z,49524.22
2023-03-26T01:30:33.601Z,49364.22
2023-03-26T01:33:33.838Z,49976.25
2023-03-26T01:36:06.122Z,49564.22
2023-03-26T01:38:46.845Z,49588.22
2023-03-26T01:41:14.128Z,49596.22
2023-03-26T01:44:03.814Z,48972.25
2023-03-26T01:46:36.121Z,49968.22
2023-03-26T01:49:05.735Z,50260.28
2023-03-26T01:51:35.569Z,50576.38
2023-03-26T01:54:06.114Z,50202.28
2023-03-26T01:56:42.564Z,50056.25
2023-03-26T01:59:28.768Z,50396.31
2023-03-26T02:02:04.931Z,50302.28
2023-03-26T02:04:44.977Z,49804.22
2023-03-26T02:07:25.379Z,49028.25
2023-03-26T02:09:59.440Z,49564.22
2023-03-26T02:12:27.938Z,50518.34
2023-03-26T02:14:55.449Z,50176.28
2023-03-26T02:17:25.155Z,49502.22
2023-03-26T02:19:52.315Z,49188.22
2023-03-26T02:22:19.587Z,49048.25
2023-03-26T02:24:46.809Z,49826.22
2023-03-26T02:27:18.381Z,50166.25
2023-03-26T02:29:47.715Z,50120.25
2023-03-26T02:32:20.285Z,49636.22
2023-03-26T02:34:47.433Z,49408.22
2023-03-26T02:37:14.828Z,49492.22
2023-03-26T02:39:43.505Z,50612.38
2023-03-26T02:42:20.465Z,51068.56
2023-03-26T02:44:48.982Z,50270.28
2023-03-26T02:47:19.064Z,50180.28
2023-03-26T02:50:05.143Z,50294.28
2023-03-26T02:52:52.376Z,50506.34
2023-03-26T02:55:21.908Z,50008.25
2023-03-26T02:57:53.808Z,49950.22
2023-03-26T03:00:25.645Z,50506.34
2023-03-26T03:03:28.128Z,51072.56
2023-03-26T03:06:26.551Z,50630.38
2023-03-26T03:08:57.751Z,50398.31
2023-03-26T03:11:45.267Z,50612.38
2023-03-26T03:14:12.509Z,50576.38
2023-03-26T03:16:39.773Z,50208.28
2023-03-26T03:19:09.602Z,50088.25
2023-03-26T03:21:38.876Z,50536.34
2023-03-26T03:24:07.553Z,50716.41
2023-03-26T03:26:37.966Z,50514.34
2023-03-26T03:29:26.697Z,50700.41
2023-03-26T03:31:55.500Z,50932.50
2023-03-26T03:34:39.740Z,51114.56
2023-03-26T03:37:07.388Z,50680.41
2023-03-26T03:39:47.133Z,50864.47
2023-03-26T03:42:20.755Z,54303.56
2023-03-26T03:44:50.356Z,55365.22
2023-03-26T03:47:43.980Z,55108.78
2023-03-26T03:50:12.352Z,55878.13
2023-03-26T03:52:48.395Z,56134.63
2023-03-26T03:55:17.284Z,56391.13
2023-03-26T03:57:49.555Z,57160.78
2023-03-26T04:00:23.307Z,57160.78
2023-03-26T04:03:07.388Z,56647.66
2023-03-26T04:05:35.091Z,56391.13
2023-03-26T04:08:02.358Z,56391.13
2023-03-26T04:10:41.021Z,56647.66
2023-03-26T04:13:17.693Z,56904.22
2023-03-26T04:16:00.544Z,56647.66
2023-03-26T04:18:27.829Z,56647.66
2023-03-26T04:20:56.417Z,56647.66
2023-03-26T04:23:30.876Z,56134.63
2023-03-26T04:26:06.778Z,56391.13
2023-03-26T04:29:04.104Z,57673.97
2023-03-26T04:31:34.029Z,58443.91
2023-03-26T04:34:20.244Z,58443.91
2023-03-26T04:37:05.047Z,59727.50
2023-03-26T04:39:39.019Z,60754.75
2023-03-26T04:42:26.599Z,62553.16
2023-03-26T04:45:05.918Z,63581.25
2023-03-26T04:47:37.013Z,64095.41
2023-03-26T04:50:09.621Z,64095.41
2023-03-26T04:52:45.098Z,64609.66
2023-03-26T04:55:33.108Z,65123.97
2023-03-26T04:58:09.507Z,64095.41
2023-03-26T05:00:53.942Z,64866.81
2023-03-26T05:03:21.524Z,66410.09
2023-03-26T05:05:49.700Z,65895.59
2023-03-26T05:08:16.980Z,64095.41
2023-03-26T05:10:44.329Z,62810.16
2023-03-26T05:13:21.597Z,60241.09
2023-03-26T05:15:52.643Z,55878.13
2023-03-26T05:18:34.029Z,54852.38
2023-03-26T05:21:02.544Z,55878.13
2023-03-26T05:23:30.987Z,50838.47
2023-03-26T05:26:19.702Z,50586.38
2023-03-26T05:28:46.943Z,50816.44
2023-03-26T05:31:23.938Z,52187.25
2023-03-26T05:33:55.113Z,51997.09
2023-03-26T05:36:23.226Z,56391.13
2023-03-26T05:39:03.528Z,54307.56
2023-03-26T05:41:53.347Z,52861.84
2023-03-26T05:44:23.598Z,51808.97
2023-03-26T05:46:51.185Z,50620.38
2023-03-26T05:49:25.059Z,52287.31
2023-03-26T05:51:55.526Z,51372.69
2023-03-26T05:54:46.006Z,50512.34
2023-03-26T05:57:40.200Z,50356.31
2023-03-26T06:00:27.702Z,49898.22
2023-03-26T06:02:56.449Z,49740.22
2023-03-26T06:05:43.068Z,49416.22
2023-03-26T06:08:16.676Z,49168.22
2023-03-26T06:10:59.015Z,48112.50
2023-03-26T06:13:27.139Z,47852.63
2023-03-26T06:15:54.679Z,47832.66
2023-03-26T06:18:27.144Z,47672.72
2023-03-26T06:21:20.191Z,49592.22
2023-03-26T06:23:55.246Z,48630.34
2023-03-26T06:26:41.075Z,47001.16
2023-03-26T06:29:20.185Z,46010.06
2023-03-26T06:32:03.429Z,45940.13
2023-03-26T06:34:43.054Z,45928.16
2023-03-26T06:37:10.341Z,45818.25
2023-03-26T06:39:39.704Z,45770.31
2023-03-26T06:43:08.974Z,45742.34
2023-03-26T06:45:40.748Z,45822.25
2023-03-26T06:48:26.544Z,49050.25
2023-03-26T06:51:16.907Z,51368.69
2023-03-26T06:54:13.606Z,49968.22
2023-03-26T06:56:55.440Z,49580.22
2023-03-26T06:59:22.646Z,44627.78
2023-03-26T07:02:13.420Z,41615.53
2023-03-26T07:04:59.043Z,41629.50
2023-03-26T07:07:46.244Z,42325.94
2023-03-26T07:10:33.122Z,42509.56
2023-03-26T07:13:15.485Z,42757.03
2023-03-26T07:16:01.320Z,42659.25
2023-03-26T07:18:48.636Z,42769.03
2023-03-26T07:21:23.349Z,42790.97
2023-03-26T07:23:56.526Z,42828.91
2023-03-26T07:27:13.931Z,42992.56
2023-03-26T07:29:44.047Z,43659.34
2023-03-26T07:32:53.483Z,43371.84
2023-03-26T07:35:50.487Z,43413.78
2023-03-26T07:39:00.297Z,43773.16
2023-03-26T07:41:51.646Z,44332.25
2023-03-26T07:45:25.390Z,45083.16
2023-03-26T07:48:29.746Z,45588.53
2023-03-26T07:51:07.150Z,45302.88
2023-03-26T07:54:04.273Z,46523.56
2023-03-26T07:57:16.832Z,47139.06
2023-03-26T08:00:25.253Z,46773.34
2023-03-26T08:03:35.009Z,45300.88
2023-03-26T08:06:48.798Z,46545.53
2023-03-26T08:09:53.740Z,49090.25
2023-03-26T08:13:03.734Z,49780.22
2023-03-26T08:15:44.199Z,48360.41
2023-03-26T08:18:14.724Z,46929.22
2023-03-26T08:20:58.338Z,46377.69
2023-03-26T08:23:53.873Z,46707.41
2023-03-26T08:26:39.559Z,46389.69
2023-03-26T08:29:32.779Z,46499.59
2023-03-26T08:32:03.268Z,47830.66
2023-03-26T08:34:33.097Z,49164.22
2023-03-26T08:37:01.386Z,50256.28
2023-03-26T08:39:29.054Z,49660.22
2023-03-26T08:42:37.538Z,47173.03
2023-03-26T08:45:33.649Z,47940.59
2023-03-26T08:48:19.591Z,47850.63
2023-03-26T08:51:04.274Z,49440.22
2023-03-26T08:54:03.436Z,49472.22
2023-03-26T08:56:56.619Z,48252.47
2023-03-26T09:00:02.916Z,47380.91
2023-03-26T09:02:56.763Z,49394.22
2023-03-26T09:05:44.145Z,49180.22
2023-03-26T09:08:30.103Z,48340.44
2023-03-26T09:11:14.990Z,47868.63
2023-03-26T09:14:03.494Z,46030.03
2023-03-26T09:16:53.474Z,47878.63
2023-03-26T09:19:31.258Z,45602.50
2023-03-26T09:22:04.604Z,46633.47
2023-03-26T09:24:44.041Z,44783.56
2023-03-26T09:27:31.479Z,44811.53
2023-03-26T09:30:24.820Z,45304.88
2023-03-26T09:33:13.317Z,44719.66
2023-03-26T09:36:01.972Z,43485.66
2023-03-26T09:38:46.669Z,42653.25
2023-03-26T09:41:23.217Z,42068.50
2023-03-26T09:44:05.787Z,42028.59
2023-03-26T09:46:53.551Z,41916.84
2023-03-26T09:49:54.145Z,41334.22
2023-03-26T09:52:45.838Z,42723.09
2023-03-26T09:55:40.546Z,42220.16
2023-03-26T09:58:23.599Z,42683.19
2023-03-26T10:01:11.141Z,43086.41
2023-03-26T10:03:42.670Z,42607.34
2023-03-26T10:06:19.332Z,41703.34
2023-03-26T10:09:18.705Z,40909.28
2023-03-26T10:12:07.307Z,41322.25
2023-03-26T10:15:00.327Z,40957.16
2023-03-26T10:17:52.677Z,41523.75
2023-03-26T10:20:45.133Z,41038.94
2023-03-26T10:23:42.987Z,40807.53
2023-03-26T10:26:41.825Z,39345.66
2023-03-26T10:30:00.855Z,38673.75
2023-03-26T10:32:38.097Z,38480.38
2023-03-26T10:35:32.038Z,38374.75
2023-03-26T10:38:27.054Z,38334.88
2023-03-26T10:40:54.401Z,38241.19
2023-03-26T10:43:25.844Z,38223.25
2023-03-26T10:46:14.920Z,38257.13
2023-03-26T10:49:28.520Z,38295.00
2023-03-26T10:52:02.226Z,38308.97
2023-03-26T10:54:53.333Z,38362.78
2023-03-26T10:57:42.050Z,38366.75
2023-03-26T11:00:16.798Z,38358.78
2023-03-26T11:03:10.157Z,38424.56
2023-03-26T11:06:09.402Z,38426.56
2023-03-26T11:08:45.745Z,38484.38
2023-03-26T11:11:24.861Z,38458.47
2023-03-26T11:14:40.471Z,38396.66
2023-03-26T11:17:39.476Z,38564.13
2023-03-26T11:24:06.308Z,38613.94
2023-03-26T11:26:49.992Z,38552.16
2023-03-26T11:29:37.726Z,38494.34
2023-03-26T11:35:46.357Z,38607.97
2023-03-26T11:38:21.824Z,38572.09
2023-03-26T11:40:57.056Z,38526.25
2023-03-26T11:44:06.440Z,38342.84
2023-03-26T11:46:38.987Z,38316.94
2023-03-26T11:49:11.734Z,38338.84
2023-03-26T11:52:22.988Z,38366.75
2023-03-26T11:55:03.365Z,38428.56
2023-03-26T11:57:36.739Z,38484.38
2023-03-26T12:00:16.581Z,38454.47
2023-03-26T12:02:46.407Z,38478.41
2023-03-26T12:05:26.343Z,38492.34
2023-03-26T12:08:02.279Z,38434.53
2023-03-26T12:10:29.532Z,38472.41
2023-03-26T12:13:05.018Z,38508.28
2023-03-26T12:15:33.765Z,38546.16
2023-03-26T12:18:28.394Z,38653.81
2023-03-26T12:21:24.955Z,38950.88
2023-03-26T12:24:02.580Z,39028.63
2023-03-26T12:26:41.945Z,38913.00
2023-03-26T12:29:17.470Z,38932.94
2023-03-26T12:32:11.010Z,38942.91
2023-03-26T12:34:39.351Z,39148.25
2023-03-26T12:37:08.473Z,39271.88
2023-03-26T12:40:10.521Z,39277.84
2023-03-26T12:44:47.592Z,39234.00
2023-03-26T12:45:24.086Z,39172.19
2023-03-26T12:48:03.115Z,39112.38
2023-03-26T12:50:54.929Z,39096.41
2023-03-26T12:53:25.365Z,39192.13
2023-03-26T12:56:09.404Z,39116.34
2023-03-26T12:59:06.492Z,39188.13
2023-03-26T13:01:52.663Z,39253.94
2023-03-26T13:04:45.114Z,39188.13
2023-03-26T13:07:43.085Z,39317.72
2023-03-26T13:10:38.153Z,39327.72
2023-03-26T13:13:33.830Z,39415.44
2023-03-26T13:16:24.748Z,39690.63
2023-03-26T13:19:02.084Z,39862.13
2023-03-26T13:21:57.210Z,39646.75
2023-03-26T13:24:27.454Z,39913.97
2023-03-26T13:27:13.233Z,40041.63
2023-03-26T13:29:59.204Z,40123.38
2023-03-26T13:32:35.104Z,40197.19
2023-03-26T13:35:14.577Z,40205.16
2023-03-26T13:38:09.893Z,40241.06
2023-03-26T13:40:52.128Z,40265.00
2023-03-26T13:43:46.184Z,40352.75
2023-03-26T13:46:25.528Z,40486.38
2023-03-26T13:49:15.745Z,40458.47
2023-03-26T13:52:00.360Z,40466.44
2023-03-26T13:54:44.657Z,40576.16
2023-03-26T13:57:16.655Z,40444.50
2023-03-26T13:59:43.857Z,40304.88
2023-03-26T14:02:33.788Z,39911.97
2023-03-26T14:05:09.506Z,39969.81
2023-03-26T14:07:47.719Z,39806.28
2023-03-26T14:10:28.178Z,39758.44
2023-03-26T14:13:21.204Z,39507.16
2023-03-26T14:15:57.367Z,39846.16
2023-03-26T14:18:59.244Z,39764.41
2023-03-26T14:21:42.280Z,40243.06
2023-03-26T14:24:51.581Z,40444.50
2023-03-26T14:28:24.243Z,40474.41
2023-03-26T14:31:19.476Z,41078.84
2023-03-26T14:33:54.626Z,41358.16
2023-03-26T14:36:28.223Z,41192.56
2023-03-26T14:39:15.211Z,41118.75
2023-03-26T14:41:53.279Z,41098.78
2023-03-26T14:44:56.414Z,40983.09
2023-03-26T14:47:27.390Z,40883.34
2023-03-26T14:50:20.362Z,40544.22
2023-03-26T14:52:52.291Z,40600.09
2023-03-26T14:55:59.318Z,40306.88
2023-03-26T14:58:50.821Z,40261.00
2023-03-26T15:01:21.882Z,40320.84
2023-03-26T15:04:07.325Z,40320.84
2023-03-26T15:06:56.394Z,40233.06
2023-03-26T15:09:57.676Z,39957.84
2023-03-26T15:12:51.818Z,40091.47
2023-03-26T15:15:28.368Z,40231.09
2023-03-26T15:18:13.020Z,40151.31
2023-03-26T15:20:58.405Z,39993.75
2023-03-26T15:23:42.850Z,39770.38
2023-03-26T15:26:28.901Z,39842.19
2023-03-26T15:29:14.808Z,39880.06
2023-03-26T15:31:50.129Z,40103.44
2023-03-26T15:34:33.670Z,40089.47
2023-03-26T15:37:10.662Z,39981.78
2023-03-26T15:40:00.097Z,39844.19
2023-03-26T15:43:08.688Z,39604.88
2023-03-26T15:45:51.384Z,39744.47
2023-03-26T15:48:36.626Z,39726.50
2023-03-26T15:51:26.098Z,39658.72
2023-03-26T15:54:02.041Z,39576.97
2023-03-26T15:56:55.654Z,39289.81
2023-03-26T15:59:42.359Z,39531.09
2023-03-26T16:02:50.439Z,39154.25
2023-03-26T16:05:26.532Z,39325.72
2023-03-26T16:08:26.283Z,39026.63
2023-03-26T16:10:58.044Z,39142.28
2023-03-26T16:13:38.214Z,38984.75
2023-03-26T16:16:06.976Z,39084.44
2023-03-26T16:18:42.302Z,39064.50
2023-03-26T16:21:31.944Z,38982.78
2023-03-26T16:24:02.867Z,39008.69
2023-03-26T16:27:07.342Z,38805.34
2023-03-26T16:30:00.306Z,38909.00
2023-03-26T16:32:38.824Z,39299.78
2023-03-26T16:35:16.557Z,38952.88
2023-03-26T16:38:05.668Z,39008.69
2023-03-26T16:40:37.267Z,39142.28
2023-03-26T16:43:44.863Z,39134.31
2023-03-26T16:46:34.457Z,39379.56
2023-03-26T16:49:27.271Z,39890.03
2023-03-26T16:52:17.465Z,40073.53
2023-03-26T16:54:50.701Z,40039.63
2023-03-26T16:57:23.329Z,39848.16
2023-03-26T17:00:23.562Z,39696.59
2023-03-26T17:03:08.083Z,39832.22
2023-03-26T17:06:13.858Z,39768.41
2023-03-26T17:09:03.870Z,39678.66
2023-03-26T17:11:53.388Z,39513.16
2023-03-26T17:14:49.421Z,39582.94
2023-03-26T17:17:23.316Z,39626.81
2023-03-26T17:20:07.605Z,38536.19
2023-03-26T17:22:38.183Z,38677.75
2023-03-26T17:25:32.692Z,38797.34
2023-03-26T17:28:46.096Z,38873.13
2023-03-26T17:31:28.161Z,38974.78
2023-03-26T17:34:16.105Z,38984.75
2023-03-26T17:36:46.011Z,39002.72
2023-03-26T17:39:52.241Z,38946.88
2023-03-26T17:42:30.396Z,39200.09
2023-03-26T17:45:17.761Z,42511.53
2023-03-26T17:47:55.790Z,39074.47
2023-03-26T17:50:30.694Z,38416.59
2023-03-26T17:53:14.774Z,38494.34
2023-03-26T17:55:46.501Z,38705.66
2023-03-26T17:58:30.593Z,39311.75
2023-03-26T18:01:08.970Z,39567.00
2023-03-26T18:03:57.021Z,40161.28
2023-03-26T18:06:39.112Z,40376.69
2023-03-26T18:09:35.509Z,40905.28
2023-03-26T18:12:37.563Z,41064.88
2023-03-26T18:15:24.403Z,41108.78
2023-03-26T18:18:02.926Z,41439.94
2023-03-26T18:20:41.822Z,41561.66
2023-03-26T18:23:13.003Z,40921.25
2023-03-26T18:25:41.143Z,40540.25
2023-03-26T18:28:14.185Z,40129.38
2023-03-26T18:30:49.239Z,39902.00
2023-03-26T18:33:16.926Z,40063.56
2023-03-26T18:35:50.741Z,39965.81
2023-03-26T18:38:35.441Z,39802.28
2023-03-26T18:41:08.522Z,39395.50
2023-03-26T18:43:44.489Z,39200.09
2023-03-26T18:46:17.026Z,39038.59
2023-03-26T18:48:56.729Z,38928.94
2023-03-26T18:51:29.431Z,38857.16
2023-03-26T18:54:05.990Z,38771.44
2023-03-26T18:56:36.789Z,38767.47
2023-03-26T18:59:06.920Z,38753.50
2023-03-26T19:01:37.442Z,38675.75
2023-03-26T19:04:14.765Z,38645.84
2023-03-26T19:06:46.130Z,38659.81
2023-03-26T19:09:30.352Z,38657.81
2023-03-26T19:12:18.273Z,38617.94
2023-03-26T19:15:03.681Z,38633.88
2023-03-26T19:17:38.139Z,38617.94
2023-03-26T19:20:13.873Z,38588.03
2023-03-26T19:22:42.397Z,38623.91
2023-03-26T19:25:21.769Z,38590.03
2023-03-26T19:27:53.428Z,38621.94
2023-03-26T19:30:32.357Z,38623.91
2023-03-26T19:33:19.170Z,38596.00
2023-03-26T19:36:00.136Z,38625.91
2023-03-26T19:38:29.760Z,38661.78
2023-03-26T19:40:58.198Z,38637.88
2023-03-26T19:43:26.920Z,38651.81
2023-03-26T19:46:00.429Z,38677.75
2023-03-26T19:48:45.402Z,38683.72
2023-03-26T19:51:23.023Z,38639.88
2023-03-26T19:53:54.246Z,38673.75
2023-03-26T19:56:22.909Z,38665.78
2023-03-26T19:58:54.332Z,38605.97
2023-03-26T20:01:27.969Z,38625.91
2023-03-26T20:03:58.018Z,38598.00
2023-03-26T20:06:41.628Z,38596.00
2023-03-26T20:09:13.835Z,38586.03
2023-03-26T20:11:41.612Z,38530.22
2023-03-26T20:14:25.985Z,38474.41
2023-03-26T20:16:56.126Z,38470.41
2023-03-26T20:19:26.511Z,38382.72
2023-03-26T20:21:54.716Z,38454.47
2023-03-26T20:24:24.682Z,38470.41
2023-03-26T20:26:54.445Z,38512.28
2023-03-26T20:29:21.727Z,38554.16
2023-03-26T20:31:49.334Z,38542.19
2023-03-26T20:34:23.497Z,38522.25
2023-03-26T20:36:56.031Z,38588.03
2023-03-26T20:39:24.899Z,38635.88
2023-03-26T20:41:54.258Z,38695.69
2023-03-26T20:44:22.469Z,38743.53
2023-03-26T20:46:50.746Z,38755.50
2023-03-26T20:49:18.737Z,38791.38
2023-03-26T20:51:46.567Z,38853.19
2023-03-26T20:54:17.703Z,38845.22
2023-03-26T20:56:45.658Z,38893.06
2023-03-26T20:59:17.949Z,38938.91
2023-03-26T21:01:49.815Z,39054.53
2023-03-26T21:04:17.893Z,39082.47
2023-03-26T21:06:50.846Z,39094.41
2023-03-26T21:09:23.548Z,39126.31
2023-03-26T21:12:09.693Z,39112.38
2023-03-26T21:14:41.401Z,39168.19
2023-03-26T21:17:20.700Z,39154.25
2023-03-26T21:19:51.933Z,39216.03
2023-03-26T21:22:25.739Z,39162.22
2023-03-26T21:25:05.442Z,39184.16
2023-03-26T21:27:39.115Z,39192.13
2023-03-26T21:30:16.501Z,39218.03
2023-03-26T21:32:47.661Z,39321.72
2023-03-26T21:35:16.240Z,39335.69
2023-03-26T21:37:46.951Z,39333.69
2023-03-26T21:40:16.665Z,39361.59
2023-03-26T21:42:48.974Z,39445.34
2023-03-26T21:45:17.321Z,39495.19
2023-03-26T21:47:45.658Z,39451.34
2023-03-26T21:50:15.872Z,39353.63
2023-03-26T21:52:49.623Z,39431.38
2023-03-26T21:55:21.887Z,39445.34
2023-03-26T21:57:54.546Z,39395.50
2023-03-26T22:00:33.498Z,39471.28
2023-03-26T22:03:15.024Z,39459.31
2023-03-26T22:05:54.847Z,39533.09
2023-03-26T22:08:40.906Z,39519.13
2023-03-26T22:11:12.264Z,39632.78
2023-03-26T22:13:39.665Z,39638.78
2023-03-26T22:16:11.615Z,39608.88
2023-03-26T22:18:38.807Z,39652.72
2023-03-26T22:21:06.185Z,39662.69
2023-03-26T22:23:36.345Z,39515.13
2023-03-26T22:26:05.188Z,39616.84
2023-03-26T22:28:32.604Z,39694.59
2023-03-26T22:31:07.182Z,39624.81
2023-03-26T22:33:36.014Z,39794.31
2023-03-26T22:36:22.513Z,39764.41
2023-03-26T22:38:54.259Z,39919.97
2023-03-26T22:41:25.039Z,40181.22
2023-03-26T22:43:59.515Z,40171.25
2023-03-26T22:46:29.323Z,40183.22
2023-03-26T22:48:57.048Z,40298.91
2023-03-26T22:51:24.200Z,40318.84
2023-03-26T22:53:52.123Z,40189.19
2023-03-26T22:56:19.331Z,40085.50
2023-03-26T22:58:47.994Z,40087.47
2023-03-26T23:01:21.441Z,40073.53
2023-03-26T23:03:51.604Z,40077.50
2023-03-26T23:06:18.946Z,40015.69
2023-03-26T23:08:46.254Z,40017.69
2023-03-26T23:11:16.908Z,40059.56
2023-03-26T23:13:45.443Z,40227.09
2023-03-26T23:16:14.105Z,40306.88
2023-03-26T23:18:41.925Z,40308.88
2023-03-26T23:21:14.413Z,40300.88
2023-03-26T23:23:45.190Z,40336.78
2023-03-26T23:26:12.687Z,40364.72
2023-03-26T23:28:40.910Z,40448.50
2023-03-26T23:31:09.957Z,40562.19
2023-03-26T23:33:39.000Z,40412.59
2023-03-26T23:52:30.189Z,40697.81
2023-03-26T23:55:00.749Z,40518.31
2023-03-26T23:57:28.366Z,40544.22
2023-03-26T23:59:55.618Z,40600.09
